Time;durP1;ratioP1;P1;durP2;ratioP2;P2;SDS_P1;SDS_P2;PMS_P1;PMS_P2;Temp;Humidity;BMP_temperature;BMP_pressure;BME280_temperature;BME280_humidity;BME280_pressure;Samples;Min_cycle;Max_cycle;Signal;HPM_P1;HPM_P2
2021/08/15 00:00:08;;;;;;;25.27;11.55;;;;;;;14.56;83.11;100420.95;1605520;89;21580;-79
2021/08/15 00:02:37;;;;;;;12.93;7.40;;;;;;;14.56;82.94;100424.93;1636775;87;21128;-79
2021/08/15 00:05:07;;;;;;;18.73;9.88;;;;;;;14.55;82.73;100420.10;1637156;87;21177;-78
2021/08/15 00:07:36;;;;;;;16.70;8.40;;;;;;;14.53;82.24;100421.08;1637118;87;21061;-78
2021/08/15 00:10:06;;;;;;;16.62;9.38;;;;;;;14.52;81.57;100427.33;1659561;86;21132;-80
2021/08/15 00:12:33;;;;;;;14.43;9.93;;;;;;;14.51;82.69;100425.59;1664378;85;21112;-78
2021/08/15 00:15:00;;;;;;;14.68;8.35;;;;;;;14.51;83.48;100422.95;1664128;86;21134;-76
2021/08/15 00:17:27;;;;;;;13.45;8.78;;;;;;;14.50;83.91;100430.52;1664080;86;21660;-79
2021/08/15 00:19:55;;;;;;;14.60;8.68;;;;;;;14.48;84.32;100431.91;1663874;86;21085;-80
2021/08/15 00:22:22;;;;;;;13.75;8.13;;;;;;;14.47;84.06;100437.67;1664413;85;21100;-79
2021/08/15 00:24:50;;;;;;;17.90;8.68;;;;;;;14.46;84.54;100427.99;1679265;85;21096;-78
2021/08/15 00:27:17;;;;;;;11.63;8.00;;;;;;;14.45;84.76;100427.61;1679349;85;21665;-79
2021/08/15 00:29:44;;;;;;;12.07;8.10;;;;;;;14.43;85.10;100421.53;1679334;85;21211;-80
2021/08/15 00:32:11;;;;;;;14.85;8.23;;;;;;;14.41;85.47;100420.73;1678974;85;21133;-80
2021/08/15 00:34:38;;;;;;;13.68;8.90;;;;;;;14.40;85.45;100419.48;1679138;85;21116;-80
2021/08/15 00:37:07;;;;;;;12.63;8.28;;;;;;;14.39;85.84;100421.75;1681173;85;21712;-78
2021/08/15 00:39:33;;;;;;;10.50;5.97;;;;;;;14.37;85.94;100419.16;1680848;85;21114;-79
2021/08/15 00:42:00;;;;;;;12.53;7.53;;;;;;;14.38;84.40;100422.22;1679573;85;21046;-77
2021/08/15 00:44:27;;;;;;;14.70;9.28;;;;;;;14.37;85.12;100421.81;1673748;84;21588;-79
2021/08/15 00:46:55;;;;;;;13.65;7.83;;;;;;;14.37;85.27;100421.81;1658358;86;21133;-82
2021/08/15 00:49:22;;;;;;;18.52;9.53;;;;;;;14.35;85.43;100417.05;1658309;86;21058;-80
2021/08/15 00:51:49;;;;;;;13.78;8.63;;;;;;;14.34;85.82;100418.47;1658230;84;21143;-78
2021/08/15 00:54:16;;;;;;;14.40;8.63;;;;;;;14.32;84.95;100415.88;1658074;86;21161;-78
2021/08/15 00:56:56;;;;;;;15.28;9.03;;;;;;;14.31;85.54;100413.30;1658203;86;21067;-75
2021/08/15 00:59:23;;;;;;;12.35;8.45;;;;;;;14.32;85.56;100409.73;1658107;86;21609;-77
2021/08/15 01:01:54;;;;;;;10.80;7.72;;;;;;;14.32;85.74;100413.70;1658062;86;21093;-76
2021/08/15 01:04:25;;;;;;;15.05;9.03;;;;;;;14.31;85.95;100416.83;1634920;86;22743;-78
2021/08/15 01:06:54;;;;;;;13.10;8.28;;;;;;;14.30;85.61;100411.13;1657953;85;21150;-79
2021/08/15 01:09:21;;;;;;;15.78;9.45;;;;;;;14.31;85.59;100413.30;1644090;86;21087;-79
2021/08/15 01:11:50;;;;;;;13.32;8.08;;;;;;;14.29;85.94;100421.34;1631449;87;21088;-78
2021/08/15 01:14:19;;;;;;;16.82;8.48;;;;;;;14.29;85.96;100417.36;1626544;86;21186;-80
2021/08/15 01:16:47;;;;;;;15.00;9.83;;;;;;;14.28;85.89;100423.58;1604505;87;21122;-81
2021/08/15 01:19:14;;;;;;;11.25;6.37;;;;;;;14.25;85.39;100415.79;1605179;89;21152;-80
2021/08/15 01:21:42;;;;;;;12.90;9.08;;;;;;;14.22;83.72;100418.59;1605063;88;21133;-80
2021/08/15 01:24:09;;;;;;;16.87;9.40;;;;;;;14.21;84.95;100417.70;1605149;87;21083;-79
2021/08/15 01:26:36;;;;;;;14.63;8.23;;;;;;;14.18;84.93;100419.66;1605292;88;21536;-78
2021/08/15 01:29:03;;;;;;;16.80;9.20;;;;;;;14.16;85.66;100417.55;1605605;88;21167;-80
2021/08/15 01:31:31;;;;;;;12.18;7.87;;;;;;;14.16;85.34;100421.52;1643279;86;21128;-80
2021/08/15 01:34:02;;;;;;;12.98;7.47;;;;;;;14.15;85.26;100416.70;1651331;86;21136;-79
2021/08/15 01:36:28;;;;;;;17.77;9.60;;;;;;;14.14;85.75;100412.78;1651604;86;21121;-80
2021/08/15 01:38:56;;;;;;;13.88;7.40;;;;;;;14.13;84.26;100411.08;1651584;86;21098;-79
2021/08/15 01:41:24;;;;;;;17.95;10.32;;;;;;;14.13;84.97;100406.64;1651458;86;21550;-81
2021/08/15 01:43:58;;;;;;;16.20;9.88;;;;;;;14.13;85.54;100407.97;1651792;86;21359;-82
2021/08/15 01:46:30;;;;;;;12.60;7.78;;;;;;;14.11;85.59;100414.27;1650025;86;21103;-82
2021/08/15 01:49:00;;;;;;;13.65;9.63;;;;;;;14.10;86.21;100404.59;1651636;86;21530;-82
2021/08/15 01:51:27;;;;;;;12.37;6.67;;;;;;;14.09;86.30;100402.88;1651780;86;21188;-83
2021/08/15 01:53:56;;;;;;;17.62;9.73;;;;;;;14.08;85.89;100402.03;1636408;86;143846;-82
2021/08/15 01:56:24;;;;;;;14.20;9.48;;;;;;;14.09;86.56;100402.41;1608826;89;21631;-82
2021/08/15 01:58:52;;;;;;;14.38;8.45;;;;;;;14.08;86.57;100406.45;1608777;87;21580;-83
2021/08/15 02:01:20;;;;;;;18.12;10.23;;;;;;;14.06;86.62;100410.03;1608536;89;21100;-82
2021/08/15 02:03:47;;;;;;;13.22;8.63;;;;;;;14.05;87.04;100408.30;1608869;87;21176;-83
2021/08/15 02:06:15;;;;;;;17.12;8.90;;;;;;;14.03;84.92;100401.36;1608547;87;21157;-79
2021/08/15 02:08:43;;;;;;;20.23;10.00;;;;;;;14.02;86.14;100403.16;1608922;89;21101;-82
2021/08/15 02:11:09;;;;;;;13.88;7.95;;;;;;;13.99;85.77;100398.02;1608453;89;21664;-79
2021/08/15 02:13:38;;;;;;;16.70;9.98;;;;;;;13.98;86.47;100398.08;1608519;87;21592;-78
2021/08/15 02:16:07;;;;;;;14.80;10.23;;;;;;;13.95;87.02;100397.77;1608417;87;21093;-78
2021/08/15 02:18:34;;;;;;;13.80;8.03;;;;;;;13.93;87.53;100400.09;1608701;89;21117;-79
2021/08/15 02:21:01;;;;;;;18.85;9.43;;;;;;;13.92;87.27;100394.39;1608613;89;21133;-80
2021/08/15 02:23:29;;;;;;;13.43;8.20;;;;;;;13.90;86.84;100395.80;1605970;89;21088;-80
2021/08/15 02:25:56;;;;;;;14.98;8.18;;;;;;;13.89;87.50;100393.22;1596820;89;21147;-79
2021/08/15 02:28:24;;;;;;;16.75;9.38;;;;;;;13.88;88.33;100395.02;1596661;89;21086;-79
2021/08/15 02:30:52;;;;;;;16.75;8.00;;;;;;;13.83;88.58;100398.34;1596740;88;21071;-78
2021/08/15 02:33:18;;;;;;;16.75;8.40;;;;;;;13.80;88.95;100399.34;1596445;88;21138;-80
2021/08/15 02:35:46;;;;;;;13.10;8.45;;;;;;;13.78;89.27;100397.23;1596624;88;21110;-80
2021/08/15 02:38:13;;;;;;;14.80;9.80;;;;;;;13.74;89.46;100395.65;1596824;89;21087;-79
2021/08/15 02:40:40;;;;;;;19.70;9.38;;;;;;;13.74;89.49;100394.80;1596955;88;21590;-79
2021/08/15 02:43:08;;;;;;;12.03;6.83;;;;;;;13.71;89.38;100389.19;1596475;89;21107;-82
2021/08/15 02:45:34;;;;;;;19.27;9.38;;;;;;;13.72;89.09;100394.01;1597187;88;21790;-81
2021/08/15 02:48:01;;;;;;;15.75;10.28;;;;;;;13.73;89.49;100399.68;1598887;88;21071;-81
2021/08/15 02:50:29;;;;;;;15.05;8.50;;;;;;;13.73;89.35;100394.39;1599962;89;21083;-78
2021/08/15 02:52:56;;;;;;;14.93;8.78;;;;;;;13.71;89.72;100398.45;1597330;89;22146;-79
2021/08/15 02:55:24;;;;;;;15.58;8.55;;;;;;;13.69;89.15;100396.33;1565966;89;21133;-75
2021/08/15 02:57:51;;;;;;;14.05;9.28;;;;;;;13.70;89.63;100395.86;1565611;91;21464;-74
2021/08/15 03:00:19;;;;;;;13.70;9.08;;;;;;;13.70;89.90;100399.83;1566153;90;21054;-75
2021/08/15 03:02:46;;;;;;;16.75;9.80;;;;;;;13.71;89.95;100397.56;1564791;90;21134;-74
2021/08/15 03:05:14;;;;;;;18.10;9.15;;;;;;;13.74;90.19;100401.41;1564735;88;21145;-74
2021/08/15 03:07:41;;;;;;;17.65;9.48;;;;;;;13.76;90.18;100404.85;1565174;90;21653;-74
2021/08/15 03:10:10;;;;;;;13.40;8.93;;;;;;;13.76;89.96;100398.23;1585897;89;21125;-72
2021/08/15 03:12:37;;;;;;;16.50;9.75;;;;;;;13.78;89.98;100398.99;1589788;90;21108;-74
2021/08/15 03:15:06;;;;;;;16.85;9.88;;;;;;;13.78;90.03;100400.32;1589469;87;21139;-74
2021/08/15 03:17:33;;;;;;;15.45;9.85;;;;;;;13.77;90.13;100397.30;1589868;90;21089;-73
2021/08/15 03:20:02;;;;;;;21.33;9.63;;;;;;;13.79;90.39;100395.44;1589440;90;21144;-74
2021/08/15 03:22:29;;;;;;;14.73;8.03;;;;;;;13.90;90.60;100404.22;1589515;87;22029;-75
2021/08/15 03:24:59;;;;;;;19.77;9.60;;;;;;;14.19;90.39;100401.50;1589200;89;21120;-75
2021/08/15 03:27:26;;;;;;;13.68;7.75;;;;;;;14.55;89.29;100392.27;1613741;88;21692;-75
2021/08/15 03:29:53;;;;;;;17.40;8.90;;;;;;;14.88;88.17;100387.53;1621619;88;21562;-71
2021/08/15 03:32:20;;;;;;;23.42;9.25;;;;;;;15.20;87.01;100389.86;1614377;87;21157;-70
2021/08/15 03:34:47;;;;;;;15.53;8.85;;;;;;;15.55;85.70;100392.44;1617829;87;21726;-71
2021/08/15 03:38:31;;;;;;;14.05;8.50;;;;;;;16.18;83.08;100389.53;1795384;79;22801;-72
2021/08/15 03:40:59;;;;;;;16.90;9.98;;;;;;;16.47;81.50;100383.86;1746597;80;21671;-72
2021/08/15 03:43:26;;;;;;;11.75;5.85;;;;;;;16.88;79.88;100388.61;1727301;81;21133;-73
2021/08/15 03:45:53;;;;;;;16.70;8.90;;;;;;;17.28;77.02;100385.76;1721101;82;21592;-70
2021/08/15 03:48:21;;;;;;;18.45;8.73;;;;;;;17.68;76.08;100388.61;1727966;82;21154;-72
2021/08/15 03:50:48;;;;;;;10.90;7.37;;;;;;;18.04;74.38;100385.95;1737897;82;21057;-72
2021/08/15 03:53:15;;;;;;;16.02;9.10;;;;;;;18.40;72.89;100388.50;1726055;82;21045;-70
2021/08/15 03:55:42;;;;;;;12.37;8.90;;;;;;;18.74;71.70;100378.27;1721436;82;21371;-71
2021/08/15 03:58:11;;;;;;;16.70;8.28;;;;;;;19.06;70.13;100376.97;1710024;82;21068;-73
2021/08/15 04:00:41;;;;;;;17.90;9.48;;;;;;;19.41;68.83;100373.67;1731039;82;21013;-75
2021/08/15 04:03:10;;;;;;;14.03;8.90;;;;;;;19.79;67.79;100374.16;1709127;82;21121;-73
2021/08/15 04:05:37;;;;;;;14.13;9.83;;;;;;;20.17;66.01;100374.52;1735824;82;21056;-74
2021/08/15 04:08:05;;;;;;;20.62;9.25;;;;;;;20.49;65.06;100361.43;1717670;82;21130;-74
2021/08/15 04:10:33;;;;;;;13.60;9.28;;;;;;;20.84;63.78;100362.45;1743348;82;21041;-77
2021/08/15 04:13:00;;;;;;;12.63;9.80;;;;;;;21.16;62.32;100367.55;1730053;82;21713;-74
2021/08/15 04:15:28;;;;;;;16.50;9.93;;;;;;;21.46;61.22;100363.44;1725618;82;21762;-75
2021/08/15 04:17:56;;;;;;;14.23;9.55;;;;;;;21.77;60.15;100359.19;1713875;82;21116;-76
2021/08/15 04:20:23;;;;;;;17.85;10.78;;;;;;;22.08;58.79;100363.89;1701984;84;21750;-77
2021/08/15 04:22:50;;;;;;;14.07;9.40;;;;;;;22.43;57.60;100369.55;1702394;83;21068;-78
2021/08/15 04:25:17;;;;;;;17.62;9.95;;;;;;;22.75;55.51;100361.02;1702610;84;21099;-74
2021/08/15 04:27:44;;;;;;;16.62;9.23;;;;;;;23.01;54.64;100364.70;1702277;83;21080;-74
2021/08/15 04:30:12;;;;;;;16.80;9.38;;;;;;;23.22;53.67;100365.52;1702591;84;21060;-76
2021/08/15 04:32:39;;;;;;;20.62;10.35;;;;;;;23.40;52.52;100364.42;1702573;84;21766;-77
2021/08/15 04:35:08;;;;;;;17.00;9.70;;;;;;;23.59;52.59;100366.34;1705752;82;21005;-74
2021/08/15 04:37:35;;;;;;;18.75;11.45;;;;;;;23.78;50.96;100368.78;1741694;82;21545;-71
2021/08/15 04:40:04;;;;;;;16.67;11.28;;;;;;;24.01;51.93;100367.58;1748272;82;21006;-73
2021/08/15 04:42:32;;;;;;;17.02;11.05;;;;;;;24.21;51.07;100364.94;1748286;82;21520;-75
2021/08/15 04:45:02;;;;;;;19.05;10.98;;;;;;;24.33;50.91;100363.81;1733604;82;21135;-76
2021/08/15 04:47:29;;;;;;;17.73;10.75;;;;;;;24.61;49.94;100359.97;1740718;82;21042;-78
2021/08/15 04:49:56;;;;;;;17.37;10.70;;;;;;;24.81;49.51;100357.62;1735333;82;21254;-76
2021/08/15 04:52:24;;;;;;;24.40;11.45;;;;;;;25.19;48.87;100355.91;1732282;82;21161;-76
2021/08/15 04:54:50;;;;;;;17.52;11.57;;;;;;;25.53;47.84;100355.34;1734524;82;20992;-77
2021/08/15 04:57:19;;;;;;;19.57;10.45;;;;;;;25.87;46.77;100358.85;1730935;82;21211;-74
2021/08/15 04:59:48;;;;;;;24.72;11.90;;;;;;;26.14;45.84;100357.48;1735240;82;21081;-76
2021/08/15 05:02:15;;;;;;;24.60;12.33;;;;;;;26.43;45.23;100355.06;1730938;82;21511;-76
2021/08/15 05:04:43;;;;;;;15.83;11.18;;;;;;;26.75;44.79;100357.75;1729196;82;21577;-76
2021/08/15 05:07:09;;;;;;;19.20;11.85;;;;;;;27.10;43.78;100350.09;1734595;82;21073;-75
2021/08/15 05:09:38;;;;;;;27.70;12.63;;;;;;;27.25;43.04;100351.73;1731509;82;21041;-76
2021/08/15 05:12:07;;;;;;;23.67;12.45;;;;;;;27.27;42.71;100354.28;1743096;82;21053;-78
2021/08/15 05:14:35;;;;;;;20.75;11.73;;;;;;;27.39;42.59;100348.42;1748376;82;21077;-77
2021/08/15 05:17:02;;;;;;;19.10;11.25;;;;;;;27.58;41.67;100343.78;1748078;82;21142;-75
2021/08/15 05:19:31;;;;;;;22.87;10.68;;;;;;;27.65;41.15;100343.98;1747285;82;22217;-77
2021/08/15 05:22:00;;;;;;;14.57;10.33;;;;;;;27.93;41.10;100336.51;1718070;83;21017;-77
2021/08/15 05:24:27;;;;;;;20.17;11.22;;;;;;;27.93;41.10;100336.51;1718781;82;21849;-77
2021/08/15 05:26:55;;;;;;;15.83;10.58;;;;;;;28.28;40.36;100334.59;1721062;82;21068;-76
2021/08/15 05:29:23;;;;;;;23.50;10.43;;;;;;;28.52;39.63;100329.20;1718099;82;21108;-78
2021/08/15 05:31:50;;;;;;;18.00;9.65;;;;;;;28.77;38.92;100330.57;1717954;83;21033;-76
2021/08/15 05:34:17;;;;;;;17.10;9.23;;;;;;;29.08;38.48;100332.11;1722542;82;21113;-77
2021/08/15 05:36:44;;;;;;;20.15;9.85;;;;;;;29.49;37.10;100332.84;1747305;82;21038;-77
2021/08/15 05:39:11;;;;;;;17.52;9.58;;;;;;;29.82;36.47;100339.52;1735038;81;21036;-77
2021/08/15 05:41:38;;;;;;;19.67;10.50;;;;;;;30.03;35.91;100331.27;1717787;83;21042;-76
2021/08/15 05:44:06;;;;;;;16.73;9.05;;;;;;;30.27;35.91;100333.84;1721716;82;21084;-78
2021/08/15 05:46:33;;;;;;;15.83;9.10;;;;;;;30.33;35.46;100331.45;1726284;82;21774;-79
2021/08/15 05:49:00;;;;;;;14.05;8.23;;;;;;;30.41;34.99;100330.02;1720091;82;21069;-78
2021/08/15 05:51:27;;;;;;;17.12;10.50;;;;;;;30.58;35.09;100327.52;1717893;82;21085;-77
2021/08/15 05:53:55;;;;;;;18.40;10.98;;;;;;;30.85;34.51;100321.18;1717774;82;21085;-76
2021/08/15 05:56:22;;;;;;;15.83;9.83;;;;;;;30.93;34.30;100314.32;1717694;82;21162;-77
2021/08/15 05:58:50;;;;;;;15.28;9.85;;;;;;;30.89;34.37;100323.34;1717830;82;21079;-76
2021/08/15 06:01:18;;;;;;;17.32;10.25;;;;;;;30.94;33.60;100318.23;1728790;82;21035;-76
2021/08/15 06:03:46;;;;;;;16.52;10.18;;;;;;;31.17;33.81;100315.09;1717852;82;21560;-77
2021/08/15 06:06:13;;;;;;;16.85;8.93;;;;;;;31.39;33.26;100308.72;1732480;82;20983;-76
2021/08/15 06:08:40;;;;;;;16.65;10.32;;;;;;;31.52;32.30;100317.10;1747789;82;21088;-77
2021/08/15 06:11:07;;;;;;;20.62;10.63;;;;;;;31.71;32.70;100314.83;1747386;82;21138;-76
2021/08/15 06:13:35;;;;;;;21.82;11.00;;;;;;;31.67;32.02;100314.87;1747559;82;21054;-76
2021/08/15 06:16:02;;;;;;;15.23;8.50;;;;;;;31.87;33.09;100313.24;1737805;82;21105;-76
2021/08/15 06:18:29;;;;;;;11.40;7.50;;;;;;;32.10;32.55;100310.91;1721815;82;21505;-77
2021/08/15 06:20:57;;;;;;;14.00;7.92;;;;;;;32.23;32.03;100314.28;1721737;82;21090;-78
2021/08/15 06:23:24;;;;;;;16.17;8.03;;;;;;;32.27;32.02;100311.50;1729984;82;21082;-76
2021/08/15 06:25:51;;;;;;;13.00;7.55;;;;;;;32.24;31.58;100309.17;1727697;82;21093;-78
2021/08/15 06:28:19;;;;;;;13.55;7.10;;;;;;;32.27;31.47;100312.86;1739570;82;21060;-76
2021/08/15 06:30:46;;;;;;;13.85;7.45;;;;;;;32.55;31.26;100304.77;1723694;82;21070;-77
2021/08/15 06:33:13;;;;;;;11.08;7.22;;;;;;;32.71;30.70;100304.48;1720295;82;21060;-79
2021/08/15 06:35:40;;;;;;;15.03;6.95;;;;;;;32.80;31.07;100304.66;1725181;82;21787;-77
2021/08/15 06:38:07;;;;;;;11.45;6.80;;;;;;;32.80;30.92;100310.64;1743974;82;21077;-78
2021/08/15 06:40:34;;;;;;;9.85;6.40;;;;;;;32.95;30.27;100313.28;1741564;82;21069;-78
2021/08/15 06:43:10;;;;;;;10.18;6.42;;;;;;;32.92;30.27;100306.84;1733902;82;21061;-77
2021/08/15 06:45:38;;;;;;;13.43;6.85;;;;;;;32.95;30.19;100310.56;1716391;82;21666;-78
2021/08/15 06:48:06;;;;;;;11.05;6.60;;;;;;;32.88;29.90;100301.49;1717362;82;21807;-77
2021/08/15 06:50:33;;;;;;;9.25;6.20;;;;;;;32.84;29.98;100302.39;1728607;82;21581;-77
2021/08/15 06:53:00;;;;;;;18.60;8.40;;;;;;;32.98;29.78;100301.44;1714908;82;21038;-77
2021/08/15 06:55:29;;;;;;;13.93;6.83;;;;;;;32.98;30.25;100300.60;1716555;82;21120;-77
2021/08/15 06:57:56;;;;;;;14.13;6.10;;;;;;;32.98;29.92;100298.71;1712383;82;21017;-77
2021/08/15 07:00:23;;;;;;;13.03;6.80;;;;;;;32.68;29.15;100294.51;1714141;82;21544;-78
2021/08/15 07:02:50;;;;;;;13.85;5.33;;;;;;;32.70;29.49;100287.81;1730926;82;21494;-77
2021/08/15 07:05:19;;;;;;;11.48;5.90;;;;;;;33.18;28.34;100292.06;1720764;82;21018;-78
2021/08/15 07:07:46;;;;;;;14.70;6.55;;;;;;;33.47;27.08;100291.99;1716341;82;21034;-79
2021/08/15 07:10:14;;;;;;;21.75;6.28;;;;;;;33.74;26.58;100297.08;1716812;82;21631;-77
2021/08/15 07:12:43;;;;;;;17.95;7.28;;;;;;;33.75;26.03;100296.89;1714606;82;21124;-76
2021/08/15 07:15:11;;;;;;;17.57;6.97;;;;;;;33.67;26.74;100294.86;1726300;82;21021;-75
2021/08/15 07:17:40;;;;;;;28.42;9.25;;;;;;;33.49;26.25;100295.37;1723452;82;21028;-77
2021/08/15 07:20:09;;;;;;;28.77;10.20;;;;;;;33.39;26.73;100293.02;1721598;82;21062;-79
2021/08/15 07:22:36;;;;;;;36.40;11.20;;;;;;;33.40;27.11;100290.59;1723397;82;21453;-76
2021/08/15 07:25:04;;;;;;;20.55;8.18;;;;;;;33.39;27.62;100291.66;1717126;82;21097;-76
2021/08/15 07:27:33;;;;;;;23.42;7.97;;;;;;;33.50;26.54;100291.08;1741869;82;21088;-75
2021/08/15 07:30:00;;;;;;;16.32;7.40;;;;;;;33.25;26.55;100292.63;1732728;82;20978;-80
2021/08/15 07:32:33;;;;;;;17.65;7.33;;;;;;;33.25;26.85;100292.63;1713200;83;21060;-76
2021/08/15 07:35:01;;;;;;;12.20;5.85;;;;;;;33.66;26.37;100297.25;1725993;82;21563;-78
2021/08/15 07:37:28;;;;;;;12.88;6.10;;;;;;;33.83;25.22;100295.86;1737306;81;22113;-78
2021/08/15 07:39:57;;;;;;;10.72;5.75;;;;;;;33.79;25.88;100289.95;1729058;82;21828;-79
2021/08/15 07:42:25;;;;;;;10.80;5.15;;;;;;;33.91;25.79;100290.19;1732919;82;21058;-77
2021/08/15 07:44:54;;;;;;;8.88;5.22;;;;;;;33.61;25.53;100287.80;1724883;82;21061;-76
2021/08/15 07:47:22;;;;;;;12.15;4.70;;;;;;;33.63;25.94;100289.78;1703831;84;21149;-77
2021/08/15 07:49:50;;;;;;;12.60;6.40;;;;;;;33.80;24.93;100290.81;1703705;84;21169;-77
2021/08/15 07:52:17;;;;;;;10.30;5.25;;;;;;;33.88;24.44;100290.61;1715774;82;21058;-76
2021/08/15 07:54:44;;;;;;;8.00;4.60;;;;;;;33.53;24.98;100287.94;1717178;82;21089;-79
2021/08/15 07:57:11;;;;;;;8.63;4.75;;;;;;;33.57;25.35;100290.61;1722170;82;21058;-76
2021/08/15 07:59:37;;;;;;;12.90;4.40;;;;;;;33.21;25.52;100279.38;1725831;82;21097;-79
2021/08/15 08:02:04;;;;;;;13.53;5.97;;;;;;;32.94;25.20;100284.31;1721291;82;21848;-78
2021/08/15 08:04:31;;;;;;;13.93;4.50;;;;;;;32.93;25.55;100278.02;1719173;82;21062;-78
2021/08/15 08:07:02;;;;;;;8.05;4.35;;;;;;;33.19;25.58;100281.45;1719819;82;21006;-77
2021/08/15 08:09:29;;;;;;;10.95;4.90;;;;;;;33.18;24.93;100278.42;1722653;82;21069;-76
2021/08/15 08:11:56;;;;;;;9.90;4.40;;;;;;;33.21;25.52;100278.00;1709397;82;20987;-77
2021/08/15 08:14:24;;;;;;;14.47;5.47;;;;;;;33.13;25.66;100280.05;1704286;84;21150;-79
2021/08/15 08:16:52;;;;;;;12.58;5.35;;;;;;;32.99;25.55;100279.09;1704387;84;21667;-78
2021/08/15 08:19:20;;;;;;;12.63;5.00;;;;;;;32.87;26.04;100277.97;1732569;82;22018;-79
2021/08/15 08:21:47;;;;;;;8.40;4.42;;;;;;;33.05;25.75;100276.13;1733870;82;21521;-79
2021/08/15 08:24:14;;;;;;;9.63;4.92;;;;;;;33.16;25.67;100270.12;1733795;82;21148;-79
2021/08/15 08:26:40;;;;;;;9.90;4.85;;;;;;;33.29;25.61;100274.78;1734108;82;21747;-79
2021/08/15 08:29:07;;;;;;;11.75;4.95;;;;;;;33.14;25.56;100266.74;1706805;82;21085;-77
2021/08/15 08:31:35;;;;;;;11.90;4.58;;;;;;;33.05;26.65;100267.42;1716853;81;21517;-77
2021/08/15 08:34:02;;;;;;;12.88;5.12;;;;;;;32.83;26.64;100265.77;1713884;81;21041;-77
2021/08/15 08:36:29;;;;;;;8.08;4.35;;;;;;;32.78;26.88;100264.50;1719935;82;22017;-77
2021/08/15 08:38:56;;;;;;;10.15;4.20;;;;;;;33.00;26.80;100265.78;1711154;82;21150;-78
2021/08/15 08:41:23;;;;;;;9.05;5.05;;;;;;;33.09;26.37;100267.34;1717095;82;21078;-77
2021/08/15 08:43:50;;;;;;;7.65;4.40;;;;;;;33.28;26.53;100263.56;1728622;82;21501;-78
2021/08/15 08:46:19;;;;;;;10.50;4.92;;;;;;;33.85;25.73;100254.16;1716151;82;21042;-78
2021/08/15 08:48:46;;;;;;;13.90;5.17;;;;;;;34.28;25.04;100257.95;1719161;82;21026;-80
2021/08/15 08:51:13;;;;;;;14.80;5.40;;;;;;;34.30;24.96;100251.72;1733340;82;21010;-79
2021/08/15 08:53:40;;;;;;;15.23;4.62;;;;;;;34.02;25.77;100255.44;1733501;82;21593;-78
2021/08/15 08:56:08;;;;;;;9.45;4.45;;;;;;;33.28;26.65;100249.92;1721329;82;21108;-79
2021/08/15 08:58:35;;;;;;;18.25;5.28;;;;;;;32.78;27.36;100248.64;1716834;82;21135;-78
2021/08/15 09:01:02;;;;;;;11.93;4.75;;;;;;;32.67;27.33;100241.87;1708950;81;21018;-79
2021/08/15 09:03:29;;;;;;;10.72;4.80;;;;;;;32.66;27.52;100244.78;1713783;82;21175;-77
2021/08/15 09:05:56;;;;;;;9.98;4.85;;;;;;;32.93;27.52;100240.36;1719430;82;21111;-78
2021/08/15 09:08:30;;;;;;;11.30;4.58;;;;;;;33.08;27.51;100238.36;1729734;82;21034;-78
2021/08/15 09:11:20;;;;;;;13.00;5.03;;;;;;;33.14;27.35;100238.93;1712091;82;21107;-79
2021/08/15 09:14:09;;;;;;;12.45;5.17;;;;;;;33.49;26.99;100232.05;1708824;82;21482;-80
2021/08/15 09:17:00;;;;;;;17.02;5.10;;;;;;;34.10;25.87;100231.76;1706287;82;21730;-79
2021/08/15 09:19:39;;;;;;;;;;;;;;;34.54;24.75;100227.55;1711421;81;21034;-78
2021/08/15 09:22:24;;;;;;;10.03;5.20;;;;;;;34.52;24.84;100215.98;1705815;82;20189;-79
2021/08/15 09:25:03;;;;;;;11.95;4.53;;;;;;;34.43;24.88;100217.56;1712086;82;20971;-79
2021/08/15 09:27:36;;;;;;;11.80;5.20;;;;;;;34.64;25.28;100206.94;1714937;82;21094;-78
2021/08/15 09:30:16;;;;;;;13.48;4.83;;;;;;;34.94;24.75;100199.63;1702182;82;21144;-73
2021/08/15 09:33:01;;;;;;;10.95;5.15;;;;;;;34.94;24.18;100209.73;1714888;82;21050;-78
2021/08/15 09:35:39;;;;;;;13.05;5.28;;;;;;;34.50;24.92;100206.63;1661082;85;21153;-79
2021/08/15 09:38:09;;;;;;;10.95;4.40;;;;;;;34.23;25.48;100208.52;1665695;85;22172;-78
2021/08/15 09:40:40;;;;;;;9.58;4.80;;;;;;;34.32;25.57;100201.78;1674951;84;21065;-80
2021/08/15 09:43:19;;;;;;;10.43;5.12;;;;;;;34.51;25.70;100199.25;1666220;84;21102;-79
2021/08/15 09:45:58;;;;;;;9.43;4.72;;;;;;;34.18;25.74;100198.75;1673332;84;21128;-80
2021/08/15 09:48:42;;;;;;;13.43;5.05;;;;;;;33.55;26.21;100197.64;1668478;84;22415;-78
2021/08/15 09:51:22;;;;;;;11.33;5.00;;;;;;;33.51;26.59;100198.56;1670065;85;21033;-79
2021/08/15 09:53:58;;;;;;;12.15;5.28;;;;;;;33.03;26.85;100193.09;1671243;84;27262;-78
2021/08/15 09:56:36;;;;;;;9.45;4.60;;;;;;;32.90;27.52;100197.09;1687079;84;21882;-77
2021/08/15 09:59:21;;;;;;;8.55;4.35;;;;;;;32.79;27.42;100187.62;1719355;82;21034;-77
2021/08/15 10:01:51;;;;;;;12.23;5.25;;;;;;;32.61;27.50;100175.86;1715070;82;21145;-78
2021/08/15 10:04:19;;;;;;;13.83;4.47;;;;;;;32.57;27.90;100181.38;1716452;82;20994;-78
2021/08/15 10:06:51;;;;;;;7.85;4.58;;;;;;;32.83;27.31;100179.86;1721397;82;21033;-78
2021/08/15 10:09:23;;;;;;;9.05;4.75;;;;;;;32.92;26.90;100167.74;1718382;82;21172;-79
2021/08/15 10:11:51;;;;;;;12.58;5.35;;;;;;;33.13;27.18;100178.59;1704549;82;21034;-77
2021/08/15 10:14:19;;;;;;;9.55;4.87;;;;;;;33.31;27.25;100166.27;1705058;82;21054;-80
2021/08/15 10:16:55;;;;;;;14.33;5.60;;;;;;;33.20;27.42;100167.19;1727540;82;21450;-79
2021/08/15 10:19:41;;;;;;;18.23;4.45;;;;;;;33.62;27.36;100158.94;1732328;82;21093;-79
2021/08/15 10:22:08;;;;;;;17.15;5.47;;;;;;;34.23;25.48;100157.95;1726287;82;21094;-78
2021/08/15 10:24:46;;;;;;;8.63;5.03;;;;;;;34.19;25.39;100158.92;1708112;82;21513;-78
2021/08/15 10:27:41;;;;;;;10.70;4.83;;;;;;;33.95;25.86;100152.14;1712689;81;21545;-79
2021/08/15 10:30:24;;;;;;;9.75;4.83;;;;;;;33.54;26.04;100155.83;1733418;81;21041;-77
2021/08/15 10:33:05;;;;;;;12.45;5.10;;;;;;;33.46;26.29;100147.01;1672050;84;21074;-76
2021/08/15 10:35:36;;;;;;;12.98;6.95;;;;;;;33.34;26.38;100144.88;1667882;84;21144;-79
2021/08/15 10:38:20;;;;;;;12.33;5.50;;;;;;;33.36;26.41;100137.33;1662523;85;21142;-79
2021/08/15 10:40:49;;;;;;;12.28;5.08;;;;;;;33.07;26.65;100137.12;1666677;84;21112;-77
2021/08/15 10:43:25;;;;;;;10.85;4.83;;;;;;;33.11;26.72;100137.03;1666713;84;21062;-80
2021/08/15 10:46:22;;;;;;;10.75;5.10;;;;;;;33.48;25.99;100140.30;1665527;84;21097;-79
2021/08/15 10:49:05;;;;;;;9.98;4.97;;;;;;;33.93;25.73;100120.62;1669459;85;21097;-79
2021/08/15 10:51:50;;;;;;;8.13;4.22;;;;;;;34.38;25.39;100127.14;1733596;82;21529;-79
2021/08/15 10:54:33;;;;;;;19.48;5.05;;;;;;;34.44;24.93;100129.03;1733354;82;21046;-78
2021/08/15 10:57:04;;;;;;;9.03;4.30;;;;;;;34.30;25.55;100122.42;1712914;82;21079;-81
2021/08/15 10:59:41;;;;;;;14.18;4.33;;;;;;;33.95;26.13;100123.45;1720364;82;21524;-79
2021/08/15 11:02:11;;;;;;;9.15;5.22;;;;;;;33.73;25.51;100115.14;1715415;82;21799;-80
2021/08/15 11:04:40;;;;;;;11.88;4.65;;;;;;;33.39;26.35;100121.06;1725850;82;21000;-80
2021/08/15 11:07:06;;;;;;;14.65;5.17;;;;;;;33.15;26.52;100115.63;1716385;82;21640;-80
2021/08/15 11:09:57;;;;;;;9.90;5.00;;;;;;;33.02;26.62;100113.14;1714908;82;21049;-79
2021/08/15 11:12:25;;;;;;;10.40;4.95;;;;;;;32.74;26.82;100114.60;1708773;82;21109;-80
2021/08/15 11:15:08;;;;;;;11.53;4.97;;;;;;;32.86;27.05;100118.12;1715615;82;21132;-80
2021/08/15 11:17:38;;;;;;;14.18;5.40;;;;;;;33.04;26.42;100111.59;1713992;82;21562;-79
2021/08/15 11:20:31;;;;;;;14.05;5.33;;;;;;;33.11;26.07;100112.48;1703983;83;22230;-78
2021/08/15 11:23:17;;;;;;;8.63;4.85;;;;;;;32.93;26.35;100101.25;1698255;84;22185;-80
2021/08/15 11:25:45;;;;;;;8.05;5.05;;;;;;;32.99;26.12;100108.60;1701932;83;21086;-76
2021/08/15 11:28:13;;;;;;;11.70;5.20;;;;;;;33.46;25.43;100098.71;1720047;82;21091;-80